Time;durP1;ratioP1;P1;durP2;ratioP2;P2;SDS_P1;SDS_P2;PMS_P1;PMS_P2;Temp;Humidity;BMP_temperature;BMP_pressure;BME280_temperature;BME280_humidity;BME280_pressure;Samples;Min_cycle;Max_cycle;Signal;HPM_P1;HPM_P2
2023/05/03 00:00:41;;;;;;;50.63;13.63;;;14.20;99.90;;;;;;6191357;23;20335;-92
2023/05/03 00:03:14;;;;;;;42.28;13.20;;;14.30;99.90;;;;;;6192427;23;20516;-93
2023/05/03 00:05:44;;;;;;;41.75;13.73;;;14.30;99.90;;;;;;6191374;23;20005;-93
2023/05/03 00:08:11;;;;;;;46.55;12.93;;;14.40;99.90;;;;;;6192916;23;20017;-92
2023/05/03 00:10:37;;;;;;;34.80;13.02;;;14.30;99.90;;;;;;6195536;23;20008;-93
2023/05/03 00:13:04;;;;;;;39.47;14.35;;;14.40;99.90;;;;;;6193475;23;20005;-90
2023/05/03 00:15:30;;;;;;;44.35;14.68;;;14.40;99.90;;;;;;6193090;23;20005;-90
2023/05/03 00:17:57;;;;;;;42.47;13.50;;;14.40;99.90;;;;;;6192568;23;20015;-91
2023/05/03 00:20:24;;;;;;;31.13;13.05;;;14.40;99.90;;;;;;6190655;23;20012;-92
2023/05/03 00:22:51;;;;;;;35.47;14.13;;;14.50;99.90;;;;;;6190181;23;20009;-91
2023/05/03 00:25:17;;;;;;;38.00;14.27;;;14.40;99.90;;;;;;6190348;23;20032;-92
2023/05/03 00:27:47;;;;;;;31.85;10.82;;;14.40;99.90;;;;;;6190567;23;20076;-90
2023/05/03 00:30:13;;;;;;;2.20;2.20;;;14.40;99.90;;;;;;6191310;23;20039;-90
2023/05/03 00:32:43;;;;;;;3.78;2.80;;;14.50;99.90;;;;;;6194140;23;20004;-93
2023/05/03 00:35:10;;;;;;;1.92;1.92;;;14.40;99.90;;;;;;6219051;23;20011;-91
2023/05/03 00:37:40;;;;;;;1.58;1.58;;;14.50;99.90;;;;;;6199835;23;20052;-91
2023/05/03 00:40:07;;;;;;;1.73;1.73;;;14.40;99.90;;;;;;6193687;23;20024;-91
2023/05/03 00:42:38;;;;;;;1.33;1.33;;;14.40;99.90;;;;;;6192880;23;20011;-92
2023/05/03 00:45:06;;;;;;;1.88;1.88;;;14.40;99.90;;;;;;6167620;23;20457;-91
2023/05/03 00:47:33;;;;;;;4.18;1.85;;;14.40;99.90;;;;;;6192453;23;20011;-91
2023/05/03 00:49:59;;;;;;;1.30;1.30;;;14.40;99.90;;;;;;6167547;23;20016;-91
2023/05/03 00:52:26;;;;;;;2.70;2.50;;;14.40;99.90;;;;;;6192196;23;20020;-90
2023/05/03 00:54:53;;;;;;;1.23;1.23;;;14.40;99.90;;;;;;6192231;23;20013;-92
2023/05/03 00:57:21;;;;;;;1.50;1.50;;;14.40;99.90;;;;;;6192248;23;20001;-91
2023/05/03 00:59:52;;;;;;;1.20;1.20;;;14.40;99.90;;;;;;6191877;23;20020;-91
2023/05/03 01:02:18;;;;;;;1.42;1.05;;;14.40;99.90;;;;;;6216684;23;20561;-91
2023/05/03 01:04:45;;;;;;;1.08;1.08;;;14.40;99.90;;;;;;6193262;23;20001;-90
2023/05/03 01:07:37;;;;;;;2.15;2.03;;;14.40;99.90;;;;;;6187803;23;20466;-92
2023/05/03 01:10:28;;;;;;;1.23;1.23;;;14.30;99.90;;;;;;6137813;23;20005;-91
2023/05/03 01:13:07;;;;;;;1.00;1.00;;;14.30;99.90;;;;;;6161809;23;20005;-90
2023/05/03 01:16:04;;;;;;;0.40;0.40;;;14.30;99.90;;;;;;6163446;23;20008;-92
2023/05/03 01:18:38;;;;;;;1.15;1.15;;;14.30;99.90;;;;;;6075986;23;20044;-90
2023/05/03 01:21:05;;;;;;;1.27;1.17;;;14.30;99.90;;;;;;6162029;23;20021;-92
2023/05/03 01:23:39;;;;;;;0.80;0.80;;;14.30;99.90;;;;;;6137791;23;20386;-92
2023/05/03 01:26:26;;;;;;;0.50;0.50;;;14.30;99.90;;;;;;6162248;23;20005;-92
2023/05/03 01:28:54;;;;;;;1.15;1.15;;;14.40;99.90;;;;;;6162229;23;20013;-91
2023/05/03 01:31:34;;;;;;;1.15;1.05;;;14.30;99.90;;;;;;6162011;23;20005;-90
2023/05/03 01:34:09;;;;;;;3.33;1.75;;;14.30;99.90;;;;;;6162465;23;20036;-92
2023/05/03 01:36:42;;;;;;;0.50;0.50;;;14.40;99.90;;;;;;6165515;23;20040;-92
2023/05/03 01:39:18;;;;;;;0.50;0.50;;;14.30;99.90;;;;;;6187953;23;20040;-93
2023/05/03 01:41:48;;;;;;;0.40;0.40;;;14.40;99.90;;;;;;6162915;23;20032;-91
2023/05/03 01:44:15;;;;;;;1.08;1.08;;;14.40;99.90;;;;;;6139080;23;20439;-92
2023/05/03 01:46:43;;;;;;;0.60;0.60;;;14.40;99.90;;;;;;6162360;23;20017;-92
2023/05/03 01:49:11;;;;;;;1.38;1.33;;;14.40;99.90;;;;;;6162797;23;20056;-91
2023/05/03 01:51:38;;;;;;;2.70;2.60;;;14.50;99.90;;;;;;6161818;23;20016;-92
2023/05/03 01:54:05;;;;;;;3.60;3.40;;;14.50;99.90;;;;;;6136134;23;20001;-92
2023/05/03 01:56:34;;;;;;;4.43;3.65;;;14.40;99.90;;;;;;6163582;23;20083;-92
2023/05/03 01:59:01;;;;;;;1.45;1.45;;;14.40;99.90;;;;;;6163606;23;20053;-95
2023/05/03 02:02:01;;;;;;;1.92;1.92;;;14.40;99.90;;;;;;6164256;23;20282;-94
2023/05/03 02:04:46;;;;;;;1.40;1.40;;;14.40;99.90;;;;;;6140184;23;20095;-93
2023/05/03 02:07:12;;;;;;;1.50;1.50;;;14.50;99.90;;;;;;6187354;23;20020;-91
2023/05/03 02:09:38;;;;;;;1.10;1.10;;;14.40;99.90;;;;;;6218390;23;20008;-90
2023/05/03 02:12:05;;;;;;;0.93;0.93;;;14.40;99.90;;;;;;6193202;23;20009;-91
2023/05/03 02:14:32;;;;;;;1.50;1.50;;;14.50;99.90;;;;;;6192611;23;20004;-91
2023/05/03 02:17:01;;;;;;;2.65;2.13;;;14.40;99.90;;;;;;6192571;23;20005;-92
2023/05/03 02:19:28;;;;;;;1.30;1.25;;;14.40;99.90;;;;;;6192411;23;20012;-93
2023/05/03 02:22:03;;;;;;;0.80;0.80;;;14.40;99.90;;;;;;6193229;23;20110;-94
2023/05/03 02:24:35;;;;;;;3.35;2.15;;;14.30;99.90;;;;;;6218019;23;20039;-93
2023/05/03 02:27:05;;;;;;;0.80;0.80;;;14.20;99.90;;;;;;6193038;23;20047;-92
2023/05/03 02:29:32;;;;;;;1.08;1.08;;;14.20;99.90;;;;;;6192121;23;20097;-91
2023/05/03 02:32:04;;;;;;;1.20;1.20;;;14.10;99.90;;;;;;6192439;23;20055;-92
2023/05/03 02:34:34;;;;;;;0.70;0.70;;;14.10;99.90;;;;;;6188727;23;20036;-93
2023/05/03 02:37:03;;;;;;;2.72;2.20;;;14.10;99.90;;;;;;6192404;23;20004;-93
2023/05/03 02:39:30;;;;;;;0.63;0.63;;;14.10;99.90;;;;;;6191820;23;20026;-94
2023/05/03 02:42:01;;;;;;;1.20;0.80;;;14.00;99.90;;;;;;6192290;23;20099;-90
2023/05/03 02:44:27;;;;;;;0.22;0.22;;;14.00;99.90;;;;;;6191994;23;20057;-94
2023/05/03 02:46:54;;;;;;;29.38;26.88;;;14.10;99.90;;;;;;6191614;23;20009;-91
2023/05/03 02:49:23;;;;;;;25.50;23.50;;;14.10;99.90;;;;;;6191814;23;20004;-91
2023/05/03 02:51:51;;;;;;;28.55;26.15;;;14.00;99.90;;;;;;6192624;23;20032;-91
2023/05/03 02:54:18;;;;;;;25.88;23.98;;;14.00;99.90;;;;;;6193883;23;20005;-92
2023/05/03 02:56:45;;;;;;;24.25;22.48;;;14.00;99.90;;;;;;6192119;23;20012;-91
2023/05/03 02:59:12;;;;;;;25.35;22.92;;;14.00;99.90;;;;;;6190745;23;20039;-91
2023/05/03 03:01:38;;;;;;;24.15;22.35;;;14.00;99.90;;;;;;6191541;23;20009;-92
2023/05/03 03:04:05;;;;;;;0.35;0.35;;;14.00;99.90;;;;;;6191700;23;20010;-92
2023/05/03 03:06:32;;;;;;;6.45;1.80;;;14.00;99.90;;;;;;6191076;23;20044;-91
2023/05/03 03:09:03;;;;;;;6.32;0.88;;;14.00;99.90;;;;;;6216931;23;20411;-91
2023/05/03 03:11:30;;;;;;;24.55;22.65;;;14.00;99.90;;;;;;6191237;23;20015;-91
2023/05/03 03:13:57;;;;;;;20.63;8.30;;;14.10;99.90;;;;;;6191745;23;20453;-91
2023/05/03 03:16:26;;;;;;;0.32;0.32;;;14.00;99.90;;;;;;6191785;23;20015;-93
2023/05/03 03:18:52;;;;;;;0.10;0.10;;;14.10;99.90;;;;;;6191723;23;20418;-93
2023/05/03 03:21:19;;;;;;;3.15;0.43;;;14.10;99.90;;;;;;6191013;23;20347;-92
2023/05/03 03:23:45;;;;;;;0.30;0.30;;;14.10;99.90;;;;;;6191466;23;20051;-93
2023/05/03 03:26:11;;;;;;;23.25;21.58;;;14.00;99.90;;;;;;6196394;23;20012;-91
2023/05/03 03:28:38;;;;;;;21.50;20.10;;;14.10;99.90;;;;;;6191729;23;20047;-91
2023/05/03 03:31:09;;;;;;;0.25;0.25;;;14.10;99.90;;;;;;6192192;23;20009;-90
2023/05/03 03:33:37;;;;;;;3.03;1.40;;;14.10;99.90;;;;;;6191096;23;20020;-92
2023/05/03 03:36:10;;;;;;;0.85;0.85;;;14.00;99.90;;;;;;6192379;23;20081;-92
2023/05/03 03:38:41;;;;;;;1.33;1.27;;;14.00;99.90;;;;;;6192051;23;20099;-92
2023/05/03 03:41:10;;;;;;;2.03;1.88;;;14.00;99.90;;;;;;6215560;23;20025;-92
2023/05/03 03:43:47;;;;;;;0.10;0.10;;;14.00;99.90;;;;;;6191717;23;20009;-92
2023/05/03 03:46:18;;;;;;;11.68;2.72;;;14.10;99.90;;;;;;6192419;23;20135;-90
2023/05/03 03:48:46;;;;;;;0.60;0.60;;;14.10;99.90;;;;;;6191010;23;20009;-88
2023/05/03 03:51:13;;;;;;;0.08;0.08;;;14.10;99.90;;;;;;6190622;23;20005;-91
2023/05/03 03:53:45;;;;;;;1.30;0.90;;;14.20;99.90;;;;;;6191787;23;20027;-92
2023/05/03 03:56:12;;;;;;;0.50;0.50;;;14.20;99.90;;;;;;6191000;23;20016;-91
2023/05/03 03:58:40;;;;;;;2.63;1.38;;;14.20;99.90;;;;;;6191097;23;20016;-91
2023/05/03 04:01:08;;;;;;;0.35;0.35;;;14.10;99.90;;;;;;6191023;23;20023;-91
2023/05/03 04:03:35;;;;;;;1.10;1.10;;;14.10;99.90;;;;;;6190537;23;20040;-91
2023/05/03 04:06:02;;;;;;;0.20;0.20;;;14.10;99.90;;;;;;6190596;23;20012;-91
2023/05/03 04:08:30;;;;;;;6.93;3.10;;;14.20;99.90;;;;;;6166063;23;20012;-93
2023/05/03 04:10:56;;;;;;;0.10;0.10;;;14.20;99.90;;;;;;6190276;23;20024;-90
2023/05/03 04:13:24;;;;;;;2.60;2.40;;;14.10;99.90;;;;;;6165896;23;20007;-91
2023/05/03 04:15:57;;;;;;;0.17;0.17;;;14.10;99.90;;;;;;6166439;23;20004;-91
2023/05/03 04:18:25;;;;;;;0.30;0.30;;;14.00;99.90;;;;;;6190702;23;20008;-91
2023/05/03 04:20:54;;;;;;;0.10;0.10;;;14.10;99.90;;;;;;6191510;23;20013;-92
2023/05/03 04:23:42;;;;;;;;;;;;;;;;;;;;;
2023/05/03 04:26:23;;;;;;;1.27;1.23;;;14.10;99.90;;;;;;6191038;23;20013;-91
2023/05/03 04:28:55;;;;;;;0.43;0.43;;;14.20;99.90;;;;;;6191940;23;20020;-92
2023/05/03 04:31:27;;;;;;;2.05;1.08;;;14.20;99.90;;;;;;6166605;23;20019;-91
2023/05/03 04:33:57;;;;;;;4.13;1.55;;;14.20;99.90;;;;;;6166605;23;20350;-92
2023/05/03 04:36:25;;;;;;;6.13;1.55;;;14.20;99.90;;;;;;6190547;23;20005;-92
2023/05/03 04:39:04;;;;;;;0.08;0.08;;;14.20;99.90;;;;;;6166489;23;20008;-93
2023/05/03 04:41:39;;;;;;;1.55;1.33;;;14.20;99.90;;;;;;6168260;23;20028;-91
2023/05/03 04:44:07;;;;;;;0.75;0.30;;;14.20;99.90;;;;;;6190685;23;20008;-92
2023/05/03 04:46:34;;;;;;;6.85;2.45;;;14.30;99.90;;;;;;6165488;23;20091;-91
2023/05/03 04:49:01;;;;;;;1.08;0.98;;;14.30;99.90;;;;;;6165600;23;20007;-90
2023/05/03 04:51:28;;;;;;;46.10;2.17;;;14.30;99.90;;;;;;6173138;23;20013;-90
2023/05/03 04:53:55;;;;;;;0.10;0.10;;;14.30;99.90;;;;;;6166718;23;20489;-90
2023/05/03 04:56:25;;;;;;;13.35;1.35;;;14.30;99.90;;;;;;6168424;23;20015;-90
2023/05/03 04:58:54;;;;;;;0.00;0.00;;;14.30;99.90;;;;;;6190198;23;20009;-91
2023/05/03 05:01:25;;;;;;;1.38;1.27;;;14.30;99.90;;;;;;6165993;23;20021;-91
2023/05/03 05:03:54;;;;;;;0.43;0.43;;;14.30;99.90;;;;;;6166958;23;20027;-89
2023/05/03 05:06:26;;;;;;;1.67;1.60;;;14.30;99.90;;;;;;6167249;23;20031;-90
2023/05/03 05:08:52;;;;;;;1.70;1.38;;;14.30;99.90;;;;;;6190409;23;20051;-90
2023/05/03 05:11:19;;;;;;;0.30;0.30;;;14.40;99.90;;;;;;6190325;23;20004;-91
2023/05/03 05:35:37;;;;;;;1.45;1.17;;;14.60;99.90;;;;;;6271591;22;20055;-93
2023/05/03 05:38:07;;;;;;;0.47;0.47;;;14.70;99.90;;;;;;6229845;22;20007;-93
2023/05/03 05:40:45;;;;;;;2.05;1.95;;;14.70;99.90;;;;;;6229796;22;20079;-92
2023/05/03 05:43:20;;;;;;;1.92;1.77;;;14.70;99.90;;;;;;6229064;22;20003;-94
2023/05/03 05:45:57;;;;;;;0.20;0.20;;;14.70;99.90;;;;;;6224444;23;20008;-92
2023/05/03 05:48:47;;;;;;;0.10;0.10;;;14.60;99.90;;;;;;6216180;23;20012;-91
2023/05/03 05:51:13;;;;;;;0.98;0.98;;;14.70;99.90;;;;;;6191250;23;20009;-91
2023/05/03 05:53:40;;;;;;;19.20;18.10;;;14.60;99.90;;;;;;6166536;23;20004;-91
2023/05/03 05:56:10;;;;;;;29.80;3.60;;;14.40;99.90;;;;;;6190609;23;20040;-91
2023/05/03 05:58:37;;;;;;;2.05;1.65;;;14.40;99.90;;;;;;6191473;23;20014;-92
2023/05/03 06:01:04;;;;;;;0.10;0.10;;;14.40;99.90;;;;;;6190703;23;20013;-94
2023/05/03 06:09:08;;;;;;;1.45;1.45;;;14.80;99.90;;;;;;6257512;22;20015;-91
2023/05/03 08:47:44;;;;;;;;;;;;;;;;;;;;;
2023/05/03 09:12:06;;;;;;;0.65;0.65;;;16.80;99.90;;;;;;6248090;22;20027;-91
2023/05/03 09:14:45;;;;;;;1.10;1.10;;;16.40;99.90;;;;;;6224278;23;20008;-93
2023/05/03 09:17:24;;;;;;;1.27;1.27;;;16.30;99.90;;;;;;6224482;23;20066;-94
2023/05/03 09:20:01;;;;;;;1.65;1.65;;;16.40;99.90;;;;;;6253737;22;20077;-93
2023/05/03 09:22:32;;;;;;;1.60;1.60;;;16.20;99.90;;;;;;6228786;22;20431;-91
2023/05/03 09:25:00;;;;;;;2.22;2.22;;;16.10;99.90;;;;;;6228646;22;20019;-93
2023/05/03 09:27:27;;;;;;;3.25;3.15;;;15.90;99.90;;;;;;6227371;22;20010;-93
2023/05/03 09:29:54;;;;;;;2.40;2.40;;;15.80;99.90;;;;;;6227659;22;20015;-92
2023/05/03 09:32:24;;;;;;;2.70;2.70;;;16.10;99.90;;;;;;6227691;22;20003;-93
2023/05/03 09:35:07;;;;;;;16.02;3.75;;;16.20;99.90;;;;;;6227563;22;20012;-91
2023/05/03 09:37:40;;;;;;;4.20;4.00;;;16.00;99.90;;;;;;6232501;22;20341;-93
2023/05/03 18:42:18;;;;;;;13.55;9.40;;;14.70;99.90;;;;;;6313863;22;20077;-92
2023/05/03 18:45:08;;;;;;;14.95;9.07;;;14.60;99.90;;;;;;6142773;23;20086;-92
2023/05/03 18:47:35;;;;;;;13.15;8.63;;;14.40;99.90;;;;;;6160551;23;20013;-92
2023/05/03 18:50:13;;;;;;;14.68;8.00;;;14.20;99.90;;;;;;6162297;23;20032;-93
2023/05/03 18:53:06;;;;;;;9.90;8.00;;;14.10;99.90;;;;;;6163168;23;20033;-93
2023/05/03 18:55:49;;;;;;;14.73;7.82;;;14.10;99.90;;;;;;6117426;23;20068;-93
2023/05/03 18:58:20;;;;;;;20.42;8.23;;;14.20;99.90;;;;;;6136224;23;20017;-92
2023/05/03 19:00:46;;;;;;;58.55;28.35;;;14.20;99.90;;;;;;6111135;23;20351;-92
2023/05/03 19:03:17;;;;;;;68.30;33.03;;;14.20;99.90;;;;;;6110909;23;20064;-92
2023/05/03 19:05:44;;;;;;;61.63;31.80;;;14.30;99.90;;;;;;6140582;23;20020;-92
2023/05/03 19:08:11;;;;;;;66.70;30.17;;;14.30;99.90;;;;;;6118531;23;20079;-93
2023/05/03 19:10:41;;;;;;;57.55;27.33;;;14.30;99.90;;;;;;6128552;22;20026;-92
2023/05/03 19:13:08;;;;;;;38.42;21.75;;;14.30;99.90;;;;;;6238876;22;20015;-92
2023/05/03 19:15:35;;;;;;;32.95;18.08;;;14.40;99.90;;;;;;6231314;22;20441;-92
2023/05/03 19:18:05;;;;;;;24.20;15.43;;;14.30;99.90;;;;;;6230473;22;20469;-93
2023/05/03 19:20:35;;;;;;;24.20;13.05;;;14.30;99.90;;;;;;6234705;22;20425;-93
2023/05/03 19:23:28;;;;;;;24.05;10.27;;;14.40;99.90;;;;;;6238984;22;20003;-93
2023/05/03 19:26:06;;;;;;;19.60;9.80;;;14.40;99.90;;;;;;6131568;22;20011;-95
2023/05/03 19:28:47;;;;;;;13.73;7.88;;;14.40;99.90;;;;;;6253013;22;20012;-93
2023/05/03 19:43:25;;;;;;;19.17;9.05;;;14.40;99.90;;;;;;6289169;22;20046;-93
2023/05/03 19:46:25;;;;;;;26.67;10.43;;;14.40;99.90;;;;;;6229281;22;20369;-93
2023/05/03 19:48:55;;;;;;;22.17;11.10;;;14.50;99.90;;;;;;6225559;22;21444;-92
2023/05/03 19:51:31;;;;;;;27.77;11.65;;;14.50;99.90;;;;;;6227336;22;20020;-93
2023/05/03 19:54:08;;;;;;;26.40;10.60;;;14.50;99.90;;;;;;6249358;23;20074;-93
2023/05/03 19:56:37;;;;;;;29.52;11.85;;;14.50;99.90;;;;;;6225484;23;20031;-93
2023/05/03 21:36:37;;;;;;;12.15;6.40;;;14.20;99.90;;;;;;6311804;22;20454;-93
2023/05/03 21:39:04;;;;;;;16.08;6.88;;;14.20;99.90;;;;;;6258308;22;20363;-91
2023/05/03 21:41:38;;;;;;;16.15;7.53;;;14.20;99.90;;;;;;6259501;22;20090;-94
2023/05/03 21:44:05;;;;;;;21.73;7.72;;;14.20;99.90;;;;;;6259675;22;20003;-92
2023/05/03 21:46:37;;;;;;;22.90;8.20;;;14.10;99.90;;;;;;6259501;22;20010;-93
2023/05/03 21:49:07;;;;;;;10.70;7.80;;;14.20;99.90;;;;;;6259480;22;20048;-94
2023/05/03 21:51:42;;;;;;;23.45;7.88;;;14.10;99.90;;;;;;6260038;22;20007;-93
2023/05/03 21:54:08;;;;;;;13.40;7.28;;;14.10;99.90;;;;;;6258225;22;20007;-93
2023/05/03 21:56:42;;;;;;;23.90;7.25;;;14.10;99.90;;;;;;6260428;22;20022;-93
2023/05/03 21:59:20;;;;;;;22.48;7.13;;;14.10;99.90;;;;;;6255030;22;20011;-92
2023/05/03 22:01:51;;;;;;;12.73;6.85;;;14.10;99.90;;;;;;6258559;22;20514;-93
2023/05/03 22:04:28;;;;;;;20.25;7.57;;;14.00;99.90;;;;;;6257285;22;20003;-91
2023/05/03 22:10:17;;;;;;;17.92;6.80;;;14.00;99.90;;;;;;6311192;22;20443;-93
2023/05/03 23:48:32;;;;;;;24.33;9.77;;;14.20;99.90;;;;;;6272164;22;20060;-92
2023/05/03 23:51:13;;;;;;;26.15;9.77;;;14.20;99.90;;;;;;6228641;22;20008;-92
2023/05/03 23:54:26;;;;;;;19.33;9.40;;;14.20;99.90;;;;;;6217582;23;20088;-92
2023/05/03 23:57:34;;;;;;;26.42;9.88;;;14.20;99.90;;;;;;6163796;23;20016;-93
